createdAt,value
2022-12-05T00:01:41.128Z,-0.60
2022-12-05T00:04:09.980Z,-0.60
2022-12-05T00:06:37.810Z,-0.70
2022-12-05T00:09:06.248Z,-0.70
2022-12-05T00:11:35.212Z,-0.60
2022-12-05T00:14:03.300Z,-0.70
2022-12-05T00:16:31.249Z,-0.70
2022-12-05T00:19:12.041Z,-0.70
2022-12-05T00:21:52.151Z,-0.70
2022-12-05T00:24:25.717Z,-0.60
2022-12-05T00:26:52.688Z,-0.60
2022-12-05T00:29:19.746Z,-0.60
2022-12-05T00:31:46.957Z,-0.60
2022-12-05T00:34:14.181Z,-0.60
2022-12-05T00:36:41.190Z,-0.70
2022-12-05T00:39:09.868Z,-0.80
2022-12-05T00:41:37.543Z,-0.80
2022-12-05T00:44:06.117Z,-0.80
2022-12-05T00:46:36.449Z,-0.80
2022-12-05T00:49:05.639Z,-0.80
2022-12-05T00:51:34.724Z,-0.80
2022-12-05T00:54:02.923Z,-0.80
2022-12-05T00:56:44.377Z,-0.90
2022-12-05T00:59:26.274Z,-0.90
2022-12-05T01:02:07.197Z,-0.90
2022-12-05T01:04:34.920Z,-0.80
2022-12-05T01:07:03.799Z,-0.80
2022-12-05T01:09:31.480Z,-0.80
2022-12-05T01:11:58.842Z,-0.80
2022-12-05T01:14:44.617Z,-0.90
2022-12-05T01:17:36.332Z,-0.90
2022-12-05T01:20:29.817Z,-0.90
2022-12-05T01:23:00.570Z,-0.90
2022-12-05T01:25:52.396Z,-0.90
2022-12-05T01:28:32.224Z,-0.80
2022-12-05T01:31:22.527Z,-0.90
2022-12-05T01:33:50.136Z,-0.90
2022-12-05T01:36:20.062Z,-0.90
2022-12-05T01:39:05.601Z,-0.90
2022-12-05T01:45:13.864Z,-0.80
2022-12-05T01:47:54.032Z,-0.80
2022-12-05T01:50:21.018Z,-0.90
2022-12-05T01:52:48.091Z,-1.00
2022-12-05T01:55:16.123Z,-1.00
2022-12-05T01:57:47.894Z,-1.00
2022-12-05T02:00:17.040Z,-0.90
2022-12-05T02:02:49.525Z,-0.90
2022-12-05T02:05:19.018Z,-1.00
2022-12-05T02:07:46.796Z,-1.00
2022-12-05T02:10:13.807Z,-1.00
2022-12-05T02:12:41.225Z,-1.10
2022-12-05T02:15:43.001Z,-1.00
2022-12-05T02:18:24.874Z,-1.00
2022-12-05T02:20:53.052Z,-1.00
2022-12-05T02:23:27.728Z,-1.00
2022-12-05T02:25:54.742Z,-1.00
2022-12-05T02:28:21.723Z,-1.00
2022-12-05T02:30:57.688Z,-0.90
2022-12-05T02:33:48.953Z,-1.00
2022-12-05T02:36:16.132Z,-1.00
2022-12-05T02:38:46.115Z,-1.00
2022-12-05T02:41:17.159Z,-1.00
2022-12-05T02:43:47.207Z,-1.00
2022-12-05T02:46:24.780Z,-1.00
2022-12-05T02:48:53.415Z,-1.00
2022-12-05T02:51:22.363Z,-1.00
2022-12-05T02:53:50.232Z,-1.00
2022-12-05T02:56:17.863Z,-1.00
2022-12-05T02:58:48.818Z,-1.00
2022-12-05T03:01:16.105Z,-1.00
2022-12-05T03:03:43.070Z,-1.00
2022-12-05T03:06:27.681Z,-1.00
2022-12-05T03:09:10.209Z,-0.90
2022-12-05T03:11:46.772Z,-0.90
2022-12-05T03:14:16.381Z,-0.90
2022-12-05T03:17:00.272Z,-0.90
2022-12-05T03:19:54.403Z,-0.90
2022-12-05T03:22:26.351Z,-0.80
2022-12-05T03:24:53.630Z,-0.80
2022-12-05T03:27:45.258Z,-0.80
2022-12-05T03:30:32.372Z,-0.80
2022-12-05T03:33:08.245Z,-0.80
2022-12-05T03:35:40.515Z,-0.90
2022-12-05T03:38:13.446Z,-0.90
2022-12-05T03:40:53.325Z,-0.80
2022-12-05T03:43:31.953Z,-0.90
2022-12-05T03:46:22.231Z,-0.90
2022-12-05T03:49:04.228Z,-0.90
2022-12-05T03:51:43.689Z,-0.90
2022-12-05T03:54:37.101Z,-0.90
2022-12-05T03:57:18.214Z,-1.00
2022-12-05T03:59:49.944Z,-0.90
2022-12-05T04:02:36.137Z,-0.90
2022-12-05T04:05:05.536Z,-1.00
2022-12-05T04:07:34.330Z,-1.00
2022-12-05T04:10:05.462Z,-1.00
2022-12-05T04:12:36.517Z,-0.90
2022-12-05T04:15:08.422Z,-0.90
2022-12-05T04:17:57.235Z,-0.90
2022-12-05T04:20:45.799Z,-0.90
2022-12-05T04:23:12.834Z,-0.90
2022-12-05T04:25:51.037Z,-0.90
2022-12-05T04:28:24.288Z,-0.90
2022-12-05T04:31:09.351Z,-0.90
2022-12-05T04:33:51.609Z,-0.90
2022-12-05T04:36:21.787Z,-0.80
2022-12-05T04:38:53.891Z,-0.80
2022-12-05T04:41:23.692Z,-0.80
2022-12-05T04:43:51.327Z,-0.80
2022-12-05T04:46:19.708Z,-0.70
2022-12-05T04:48:49.937Z,-0.80
2022-12-05T04:51:20.252Z,-0.80
2022-12-05T04:53:49.588Z,-0.80
2022-12-05T04:56:18.510Z,-0.80
2022-12-05T04:58:45.909Z,-0.90
2022-12-05T05:01:15.729Z,-0.90
2022-12-05T05:04:07.287Z,-0.90
2022-12-05T05:06:41.429Z,-0.80
2022-12-05T05:09:08.378Z,-0.80
2022-12-05T05:11:35.658Z,-0.80
2022-12-05T05:14:16.278Z,-0.80
2022-12-05T05:16:56.360Z,-0.80
2022-12-05T05:19:43.293Z,-0.80
2022-12-05T05:22:23.496Z,-0.90
2022-12-05T05:25:10.295Z,-0.90
2022-12-05T05:27:47.561Z,-0.90
2022-12-05T05:30:14.778Z,-1.00
2022-12-05T05:32:46.085Z,-0.90
2022-12-05T05:35:15.696Z,-1.00
2022-12-05T05:37:43.031Z,-1.00
2022-12-05T05:40:11.283Z,-1.00
2022-12-05T05:42:45.362Z,-1.00
2022-12-05T05:45:12.768Z,-1.00
2022-12-05T05:47:39.924Z,-1.00
2022-12-05T05:50:07.708Z,-1.00
2022-12-05T05:52:42.939Z,-1.00
2022-12-05T05:55:19.210Z,-1.00
2022-12-05T05:57:46.433Z,-1.00
2022-12-05T06:00:13.781Z,-1.00
2022-12-05T06:02:41.222Z,-1.00
2022-12-05T06:05:14.415Z,-0.90
2022-12-05T06:07:41.554Z,-1.00
2022-12-05T06:10:18.608Z,-1.00
2022-12-05T06:13:05.392Z,-0.90
2022-12-05T06:15:47.174Z,-0.90
2022-12-05T06:18:34.335Z,-1.00
2022-12-05T06:21:21.375Z,-1.00
2022-12-05T06:24:10.214Z,-1.00
2022-12-05T06:26:50.490Z,-0.90
2022-12-05T06:29:44.394Z,-0.90
2022-12-05T06:32:31.326Z,-0.90
2022-12-05T06:35:15.933Z,-0.90
2022-12-05T06:38:05.682Z,-0.90
2022-12-05T06:40:49.582Z,-0.90
2022-12-05T06:43:36.392Z,-0.90
2022-12-05T06:46:17.627Z,-0.90
2022-12-05T06:49:04.421Z,-1.00
2022-12-05T06:51:44.703Z,-1.00
2022-12-05T06:54:31.367Z,-0.90
2022-12-05T06:57:11.520Z,-1.00
2022-12-05T06:59:58.651Z,-1.10
2022-12-05T07:02:38.537Z,-1.00
2022-12-05T07:05:25.469Z,-1.00
2022-12-05T07:08:05.664Z,-1.00
2022-12-05T07:10:57.462Z,-1.00
2022-12-05T07:13:38.514Z,-1.00
2022-12-05T07:16:25.509Z,-1.00
2022-12-05T07:19:05.598Z,-1.00
2022-12-05T07:21:52.520Z,-1.00
2022-12-05T07:24:39.456Z,-0.90
2022-12-05T07:27:27.905Z,-0.90
2022-12-05T07:30:22.493Z,-0.90
2022-12-05T07:33:09.622Z,-1.00
2022-12-05T07:35:49.396Z,-1.00
2022-12-05T07:38:36.682Z,-1.00
2022-12-05T07:41:20.417Z,-1.00
2022-12-05T07:44:09.038Z,-0.90
2022-12-05T07:46:48.430Z,-1.00
2022-12-05T07:49:28.703Z,-1.10
2022-12-05T07:52:16.511Z,-1.10
2022-12-05T07:55:03.624Z,-1.10
2022-12-05T07:57:43.617Z,-1.10
2022-12-05T08:00:30.550Z,-1.10
2022-12-05T08:03:10.431Z,-1.10
2022-12-05T08:05:57.557Z,-1.00
2022-12-05T08:08:38.521Z,-1.00
2022-12-05T08:11:31.020Z,-0.90
2022-12-05T08:14:11.544Z,-0.90
2022-12-05T08:16:58.683Z,-0.90
2022-12-05T08:19:38.440Z,-0.90
2022-12-05T08:22:18.715Z,-0.90
2022-12-05T08:25:05.491Z,-1.00
2022-12-05T08:27:52.590Z,-1.10
2022-12-05T08:30:40.549Z,-1.00
2022-12-05T08:33:27.548Z,-1.10
2022-12-05T08:36:15.645Z,-1.10
2022-12-05T08:38:56.492Z,-1.20
2022-12-05T08:41:43.564Z,-1.20
2022-12-05T08:44:24.481Z,-1.10
2022-12-05T08:47:11.695Z,-1.10
2022-12-05T08:49:51.607Z,-1.10
2022-12-05T08:52:38.766Z,-1.10
2022-12-05T08:55:18.512Z,-1.10
2022-12-05T08:58:05.601Z,-1.00
2022-12-05T09:00:45.465Z,-1.10
2022-12-05T09:03:32.609Z,-1.10
2022-12-05T09:06:17.488Z,-1.10
2022-12-05T09:09:08.654Z,-1.20
2022-12-05T09:11:52.578Z,-1.10
2022-12-05T09:14:39.720Z,-1.10
2022-12-05T09:17:19.519Z,-1.20
2022-12-05T09:20:06.608Z,-1.20
2022-12-05T09:22:47.594Z,-1.20
2022-12-05T09:25:34.870Z,-1.20
2022-12-05T09:28:14.569Z,-1.20
2022-12-05T09:31:04.750Z,-1.10
2022-12-05T09:33:45.600Z,-1.10
2022-12-05T09:36:34.675Z,-1.10
2022-12-05T09:39:14.610Z,-1.10
2022-12-05T09:42:06.161Z,-1.20
2022-12-05T09:45:02.590Z,-1.30
2022-12-05T09:47:49.784Z,-1.30
2022-12-05T09:50:34.615Z,-1.30
2022-12-05T09:53:14.712Z,-1.30
2022-12-05T09:56:13.618Z,-1.30
2022-12-05T09:58:58.603Z,-1.20
2022-12-05T10:01:45.709Z,-1.20
2022-12-05T10:04:41.681Z,-1.30
2022-12-05T10:07:27.731Z,-1.30
2022-12-05T10:10:32.645Z,-1.40
2022-12-05T10:13:12.641Z,-1.40
2022-12-05T10:16:02.825Z,-1.50
2022-12-05T10:18:57.738Z,-1.50
2022-12-05T10:21:48.578Z,-1.40
2022-12-05T10:24:36.687Z,-1.50
2022-12-05T10:27:46.632Z,-1.30
2022-12-05T10:30:37.785Z,-1.40
2022-12-05T10:33:27.557Z,-1.40
2022-12-05T10:36:12.506Z,-1.30
2022-12-05T10:38:59.622Z,-1.30
2022-12-05T10:41:39.979Z,-1.30
2022-12-05T10:44:26.665Z,-1.30
2022-12-05T10:47:13.879Z,-1.40
2022-12-05T10:49:53.594Z,-1.40
2022-12-05T10:52:41.672Z,-1.40
2022-12-05T10:55:23.716Z,-1.40
2022-12-05T10:58:19.653Z,-1.40
2022-12-05T11:01:16.734Z,-1.40
2022-12-05T11:04:02.616Z,-1.30
2022-12-05T11:06:55.870Z,-1.40
2022-12-05T11:09:39.652Z,-1.50
2022-12-05T11:12:21.219Z,-1.60
2022-12-05T11:15:12.685Z,-1.70
2022-12-05T11:17:59.619Z,-1.70
2022-12-05T11:20:41.985Z,-1.70
2022-12-05T11:23:35.727Z,-1.70
2022-12-05T11:26:24.725Z,-1.70
2022-12-05T11:29:33.622Z,-1.70
2022-12-05T11:32:25.277Z,-1.80
2022-12-05T11:35:14.689Z,-1.80
2022-12-05T11:38:09.773Z,-1.90
2022-12-05T11:40:56.719Z,-1.90
2022-12-05T11:43:43.944Z,-1.90
2022-12-05T11:46:34.078Z,-1.90
2022-12-05T11:49:19.647Z,-1.90
2022-12-05T11:52:25.146Z,-1.90
2022-12-05T11:55:26.655Z,-2.00
2022-12-05T11:58:31.877Z,-2.00
2022-12-05T12:01:27.627Z,-2.10
2022-12-05T12:04:21.586Z,-2.10
2022-12-05T12:07:20.748Z,-2.20
2022-12-05T12:10:13.866Z,-2.20
2022-12-05T12:13:12.693Z,-2.30
2022-12-05T12:16:07.987Z,-2.20
2022-12-05T12:18:51.076Z,-2.20
2022-12-05T12:21:46.891Z,-2.20
2022-12-05T12:24:32.839Z,-2.30
2022-12-05T12:27:23.673Z,-2.40
2022-12-05T12:30:23.657Z,-2.40
2022-12-05T12:33:15.679Z,-2.40
2022-12-05T12:36:01.873Z,-2.30
2022-12-05T12:39:01.678Z,-2.40
2022-12-05T12:42:00.764Z,-2.40
2022-12-05T12:44:58.082Z,-2.30
2022-12-05T12:47:46.848Z,-2.40
2022-12-05T12:50:36.521Z,-2.40
2022-12-05T12:53:36.905Z,-2.40
2022-12-05T12:59:41.727Z,-2.50
2022-12-05T13:02:24.927Z,-2.40
2022-12-05T13:05:22.786Z,-2.40
2022-12-05T13:08:11.984Z,-2.50
2022-12-05T13:10:58.832Z,-2.50
2022-12-05T13:13:59.930Z,-2.50
2022-12-05T13:16:48.725Z,-2.40
2022-12-05T13:20:03.827Z,-2.40
2022-12-05T13:22:51.763Z,-2.30
2022-12-05T13:25:41.848Z,-2.30
2022-12-05T13:28:29.005Z,-2.30
2022-12-05T13:31:10.766Z,-2.30
2022-12-05T13:33:57.889Z,-2.40
2022-12-05T13:37:03.833Z,-2.50
2022-12-05T13:40:16.442Z,-2.50
2022-12-05T13:43:05.846Z,-2.60
2022-12-05T13:46:16.880Z,-2.70
2022-12-05T13:49:06.821Z,-2.70
2022-12-05T13:51:54.744Z,-2.70
2022-12-05T13:54:44.393Z,-2.70
2022-12-05T13:57:52.792Z,-2.60
2022-12-05T14:00:40.869Z,-2.60
2022-12-05T14:03:25.827Z,-2.50
2022-12-05T14:06:16.149Z,-2.60
2022-12-05T14:08:57.868Z,-2.60
2022-12-05T14:11:44.932Z,-2.60
2022-12-05T14:14:43.957Z,-2.70
2022-12-05T14:17:47.961Z,-2.70
2022-12-05T14:20:27.968Z,-2.60
2022-12-05T14:23:33.889Z,-2.60
2022-12-05T14:26:13.893Z,-2.60
2022-12-05T14:29:09.907Z,-2.60
2022-12-05T14:31:54.981Z,-2.70
2022-12-05T14:34:44.858Z,-2.60
2022-12-05T14:37:24.882Z,-2.70
2022-12-05T14:40:31.904Z,-2.70
2022-12-05T14:43:30.809Z,-2.80
2022-12-05T14:46:28.876Z,-2.90
2022-12-05T14:49:27.884Z,-2.90
2022-12-05T14:52:16.789Z,-2.90
2022-12-05T14:55:07.875Z,-2.80
2022-12-05T14:58:01.807Z,-2.90
2022-12-05T15:00:55.855Z,-2.90
2022-12-05T15:03:45.046Z,-2.90
2022-12-05T15:06:24.880Z,-2.80
2022-12-05T15:09:36.098Z,-2.80
2022-12-05T15:12:21.810Z,-3.00
2022-12-05T15:15:13.782Z,-3.10
2022-12-05T15:18:20.909Z,-3.00
2022-12-05T15:21:19.943Z,-3.00
2022-12-05T15:24:00.099Z,-3.00
2022-12-05T15:26:58.848Z,-3.10
2022-12-05T15:29:46.994Z,-3.10
2022-12-05T15:32:30.873Z,-3.00
2022-12-05T15:35:18.083Z,-3.00
2022-12-05T15:38:10.898Z,-3.00
2022-12-05T15:40:51.191Z,-2.90
2022-12-05T15:43:38.324Z,-2.90
2022-12-05T15:46:24.415Z,-2.90
2022-12-05T15:49:11.939Z,-2.90
2022-12-05T15:52:22.113Z,-3.00
2022-12-05T15:55:02.949Z,-3.00
2022-12-05T15:57:52.975Z,-3.10
2022-12-05T16:00:40.865Z,-3.10
2022-12-05T16:03:33.960Z,-3.20
2022-12-05T16:06:21.009Z,-3.10
2022-12-05T16:09:01.971Z,-3.10
2022-12-05T16:11:59.848Z,-3.20
2022-12-05T16:14:59.489Z,-3.30
2022-12-05T16:17:51.958Z,-3.40
2022-12-05T16:20:35.901Z,-3.40
2022-12-05T16:23:37.680Z,-3.30
2022-12-05T16:26:27.887Z,-3.40
2022-12-05T16:29:31.069Z,-3.40
2022-12-05T16:32:13.975Z,-3.40
2022-12-05T16:35:01.228Z,-3.30
2022-12-05T16:37:40.978Z,-3.40
2022-12-05T16:40:21.846Z,-3.30
2022-12-05T16:43:14.969Z,-3.30
2022-12-05T16:46:09.957Z,-3.30
2022-12-05T16:49:14.996Z,-3.30
2022-12-05T16:52:04.922Z,-3.40
2022-12-05T16:54:53.020Z,-3.30
2022-12-05T16:57:32.891Z,-3.20
2022-12-05T17:00:29.995Z,-3.30
2022-12-05T17:03:33.999Z,-3.30
2022-12-05T17:06:15.100Z,-3.20
2022-12-05T17:09:01.975Z,-3.10
2022-12-05T17:11:43.112Z,-3.10
2022-12-05T17:14:29.970Z,-3.20
2022-12-05T17:17:10.024Z,-3.10
2022-12-05T17:19:56.994Z,-3.10
2022-12-05T17:22:44.061Z,-3.10
2022-12-05T17:25:38.093Z,-3.10
2022-12-05T17:28:17.998Z,-3.10
2022-12-05T17:30:58.329Z,-3.00
2022-12-05T17:33:45.028Z,-3.00
2022-12-05T17:36:32.061Z,-3.00
2022-12-05T17:39:11.962Z,-3.10
2022-12-05T17:41:59.179Z,-3.00
2022-12-05T17:44:39.066Z,-3.00
2022-12-05T17:47:26.119Z,-3.00
2022-12-05T17:50:07.501Z,-3.00
2022-12-05T17:52:54.101Z,-3.00
2022-12-05T17:55:35.032Z,-3.10
2022-12-05T17:58:29.095Z,-3.10
2022-12-05T18:01:30.112Z,-3.10
2022-12-05T18:04:22.918Z,-3.10
2022-12-05T18:07:03.054Z,-3.10
2022-12-05T18:09:54.595Z,-3.10
2022-12-05T18:12:33.971Z,-3.20
2022-12-05T18:15:21.183Z,-3.20
2022-12-05T18:18:01.977Z,-3.20
2022-12-05T18:20:49.150Z,-3.30
2022-12-05T18:23:31.010Z,-3.30
2022-12-05T18:26:13.722Z,-3.30
2022-12-05T18:29:01.092Z,-3.30
2022-12-05T18:31:42.867Z,-3.30
2022-12-05T18:34:23.009Z,-3.30
2022-12-05T18:37:10.114Z,-3.20
2022-12-05T18:39:57.131Z,-3.30
2022-12-05T18:42:38.290Z,-3.40
2022-12-05T18:45:18.472Z,-3.40
2022-12-05T18:48:31.001Z,-3.30
2022-12-05T18:51:18.339Z,-3.40
2022-12-05T18:54:00.099Z,-3.30
2022-12-05T18:56:54.892Z,-3.30
2022-12-05T18:59:48.864Z,-3.30
2022-12-05T19:02:29.762Z,-3.20
2022-12-05T19:05:17.147Z,-3.40
2022-12-05T19:08:00.245Z,-3.40
2022-12-05T19:10:47.088Z,-3.40
2022-12-05T19:13:27.119Z,-3.30
2022-12-05T19:16:15.216Z,-3.20
2022-12-05T19:18:59.156Z,-3.20
2022-12-05T19:21:46.257Z,-3.20
2022-12-05T19:24:26.165Z,-3.30
2022-12-05T19:27:13.129Z,-3.40
2022-12-05T19:29:53.215Z,-3.40
2022-12-05T19:32:40.851Z,-3.50
2022-12-05T19:35:21.243Z,-3.40
2022-12-05T19:38:08.111Z,-3.50
2022-12-05T19:40:48.215Z,-3.50
2022-12-05T19:43:36.142Z,-3.40
2022-12-05T19:46:42.164Z,-3.40
2022-12-05T19:49:23.261Z,-3.40
2022-12-05T19:52:10.189Z,-3.40
2022-12-05T19:54:57.200Z,-3.40
2022-12-05T19:57:37.173Z,-3.40
2022-12-05T20:00:31.061Z,-3.30
2022-12-05T20:03:19.201Z,-3.30
2022-12-05T20:06:04.705Z,-3.40
2022-12-05T20:08:51.181Z,-3.50
2022-12-05T20:11:31.539Z,-3.50
2022-12-05T20:14:19.197Z,-3.50
2022-12-05T20:17:00.362Z,-3.50
2022-12-05T20:19:47.091Z,-3.50
2022-12-05T20:22:36.193Z,-3.50
2022-12-05T20:25:23.201Z,-3.50
2022-12-05T20:28:03.186Z,-3.50
2022-12-05T20:30:50.338Z,-3.50
2022-12-05T20:33:30.241Z,-3.50
2022-12-05T20:36:22.224Z,-3.50
2022-12-05T20:39:13.153Z,-3.50
2022-12-05T20:42:00.404Z,-3.60
2022-12-05T20:44:44.765Z,-3.50
2022-12-05T20:47:32.256Z,-3.50
2022-12-05T20:50:13.182Z,-3.50
2022-12-05T20:53:00.292Z,-3.50
2022-12-05T20:55:40.216Z,-3.50
2022-12-05T20:58:27.513Z,-3.50
2022-12-05T21:01:17.307Z,-3.50
2022-12-05T21:03:58.507Z,-3.50
2022-12-05T21:06:47.229Z,-3.60
2022-12-05T21:09:28.620Z,-3.50
2022-12-05T21:12:15.171Z,-3.40
2022-12-05T21:14:55.293Z,-3.40
2022-12-05T21:17:42.239Z,-3.40
2022-12-05T21:20:22.342Z,-3.40
2022-12-05T21:26:20.254Z,-3.40
2022-12-05T21:29:07.139Z,-3.40
2022-12-05T21:31:48.332Z,-3.50
2022-12-05T21:34:35.248Z,-3.50
2022-12-05T21:37:22.260Z,-3.50
2022-12-05T21:40:09.297Z,-3.50
2022-12-05T21:42:49.165Z,-3.40
2022-12-05T21:45:29.516Z,-3.40
2022-12-05T21:48:16.496Z,-3.50
2022-12-05T21:51:03.246Z,-3.60
2022-12-05T21:53:43.224Z,-3.60
2022-12-05T21:56:30.312Z,-3.60
2022-12-05T21:59:10.253Z,-3.60
2022-12-05T22:01:57.402Z,-3.60
2022-12-05T22:04:39.674Z,-3.60
2022-12-05T22:07:26.379Z,-3.60
2022-12-05T22:10:06.190Z,-3.60
2022-12-05T22:12:53.308Z,-3.60
2022-12-05T22:15:33.379Z,-3.70
2022-12-05T22:18:20.332Z,-3.60
2022-12-05T22:21:04.213Z,-3.60
2022-12-05T22:23:51.327Z,-3.60
2022-12-05T22:26:32.272Z,-3.50
2022-12-05T22:29:26.204Z,-3.60
2022-12-05T22:32:13.346Z,-3.50
2022-12-05T22:34:53.195Z,-3.50
2022-12-05T22:37:40.828Z,-3.50
2022-12-05T22:40:21.222Z,-3.50
2022-12-05T22:43:08.310Z,-3.50
2022-12-05T22:45:48.320Z,-3.40
2022-12-05T22:48:28.455Z,-3.40
2022-12-05T22:51:15.285Z,-3.40
2022-12-05T22:54:02.356Z,-3.30
2022-12-05T22:56:42.359Z,-3.40
2022-12-05T22:59:22.571Z,-3.40
2022-12-05T23:02:09.261Z,-3.40
2022-12-05T23:04:56.379Z,-3.30
2022-12-05T23:07:36.392Z,-3.30
2022-12-05T23:10:23.513Z,-3.30
2022-12-05T23:13:03.315Z,-3.40
2022-12-05T23:15:50.432Z,-3.40
2022-12-05T23:18:30.310Z,-3.40
2022-12-05T23:21:58.355Z,-3.40
2022-12-05T23:24:38.506Z,-3.40
2022-12-05T23:27:27.318Z,-3.40
2022-12-05T23:30:08.084Z,-3.40
2022-12-05T23:32:55.325Z,-3.40
2022-12-05T23:35:42.450Z,-3.30
2022-12-05T23:38:22.428Z,-3.40
2022-12-05T23:41:10.436Z,-3.40
2022-12-05T23:43:50.287Z,-3.40
2022-12-05T23:46:37.533Z,-3.40
2022-12-05T23:49:17.280Z,-3.40
2022-12-05T23:51:57.557Z,-3.30
2022-12-05T23:54:44.334Z,-3.40
2022-12-05T23:57:31.427Z,-3.40
